Time;durP1;ratioP1;P1;durP2;ratioP2;P2;SDS_P1;SDS_P2;PMS_P1;PMS_P2;Temp;Humidity;BMP_temperature;BMP_pressure;BME280_temperature;BME280_humidity;BME280_pressure;Samples;Min_cycle;Max_cycle;Signal;HPM_P1;HPM_P2
2023/08/07 00:00:48;;;;;;;13.95;2.40;;;;;;;;;;4998222;28;25073;-69
2023/08/07 00:03:18;;;;;;;8.15;2.13;;;;;;;;;;4998753;28;25056;-71
2023/08/07 00:05:47;;;;;;;10.18;2.75;;;;;;;;;;4993636;28;25071;-71
2023/08/07 00:08:13;;;;;;;11.30;2.53;;;;;;;;;;4994979;28;25137;-71
2023/08/07 00:10:40;;;;;;;14.00;2.53;;;;;;;;;;4989996;28;25049;-71
2023/08/07 00:13:06;;;;;;;11.38;2.30;;;;;;;;;;5006383;28;25078;-70
2023/08/07 00:15:33;;;;;;;15.88;3.08;;;;;;;;;;5012544;28;25056;-72
2023/08/07 00:17:59;;;;;;;14.40;2.97;;;;;;;;;;5012481;28;25092;-71
2023/08/07 00:20:25;;;;;;;18.02;4.07;;;;;;;;;;5004636;28;25059;-72
2023/08/07 00:22:51;;;;;;;13.15;2.70;;;;;;;;;;4999232;28;25082;-72
2023/08/07 00:25:17;;;;;;;13.00;2.65;;;;;;;;;;5002252;28;25089;-71
2023/08/07 00:27:43;;;;;;;12.25;2.42;;;;;;;;;;5000620;28;25111;-72
2023/08/07 00:30:09;;;;;;;8.18;2.03;;;;;;;;;;4995111;28;25058;-71
2023/08/07 00:32:35;;;;;;;12.55;2.28;;;;;;;;;;4993908;28;25119;-71
2023/08/07 00:35:01;;;;;;;11.77;2.17;;;;;;;;;;4994037;28;25179;-72
2023/08/07 00:37:27;;;;;;;13.32;2.47;;;;;;;;;;4993123;28;25068;-71
2023/08/07 00:39:53;;;;;;;14.18;2.25;;;;;;;;;;4997414;28;25120;-72
2023/08/07 00:42:19;;;;;;;13.20;2.85;;;;;;;;;;5015640;28;25095;-74
2023/08/07 00:44:45;;;;;;;11.50;2.47;;;;;;;;;;5001668;28;25071;-70
2023/08/07 00:47:11;;;;;;;8.60;2.25;;;;;;;;;;4993740;28;25095;-73
2023/08/07 00:49:38;;;;;;;7.55;1.85;;;;;;;;;;5011552;28;25107;-70
2023/08/07 00:52:04;;;;;;;9.85;2.38;;;;;;;;;;4991349;28;24869;-71
2023/08/07 00:54:31;;;;;;;12.15;2.28;;;;;;;;;;5007784;28;25061;-71
2023/08/07 00:56:59;;;;;;;9.88;2.30;;;;;;;;;;4993472;28;25080;-72
2023/08/07 00:59:25;;;;;;;9.70;2.90;;;;;;;;;;5006372;28;25088;-70
2023/08/07 01:01:51;;;;;;;20.42;3.30;;;;;;;;;;4993432;28;25055;-74
2023/08/07 01:04:17;;;;;;;13.55;3.03;;;;;;;;;;5009021;28;25068;-70
2023/08/07 01:06:43;;;;;;;9.57;2.22;;;;;;;;;;5008515;28;25055;-70
2023/08/07 01:09:09;;;;;;;13.65;3.45;;;;;;;;;;5008894;28;25155;-71
2023/08/07 01:11:40;;;;;;;7.32;2.88;;;;;;;;;;5012045;28;25062;-70
2023/08/07 01:14:09;;;;;;;10.18;2.53;;;;;;;;;;5011261;28;25146;-70
2023/08/07 01:16:38;;;;;;;10.10;2.15;;;;;;;;;;5002498;28;25078;-70
2023/08/07 01:19:05;;;;;;;10.63;2.95;;;;;;;;;;5001214;28;25115;-70
2023/08/07 01:21:32;;;;;;;7.95;2.50;;;;;;;;;;4997393;28;25056;-71
2023/08/07 01:23:58;;;;;;;18.65;3.22;;;;;;;;;;5007586;28;25088;-70
2023/08/07 01:26:25;;;;;;;13.60;2.30;;;;;;;;;;4995640;28;25110;-70
2023/08/07 01:28:59;;;;;;;12.45;2.95;;;;;;;;;;5005689;28;25082;-73
2023/08/07 01:31:26;;;;;;;12.10;2.70;;;;;;;;;;5001842;28;25053;-70
2023/08/07 01:34:01;;;;;;;12.40;2.40;;;;;;;;;;5000918;28;25070;-73
2023/08/07 01:36:28;;;;;;;17.85;3.10;;;;;;;;;;4993646;28;25063;-71
2023/08/07 01:38:55;;;;;;;9.25;2.78;;;;;;;;;;4994205;28;25097;-73
2023/08/07 01:41:21;;;;;;;7.72;2.60;;;;;;;;;;4989479;28;25091;-74
2023/08/07 01:43:47;;;;;;;10.02;2.70;;;;;;;;;;5004078;28;26202;-73
2023/08/07 01:46:13;;;;;;;9.75;3.97;;;;;;;;;;5014500;28;25152;-74
2023/08/07 01:48:39;;;;;;;10.07;2.63;;;;;;;;;;5017028;28;25090;-73
2023/08/07 01:51:05;;;;;;;9.38;2.42;;;;;;;;;;4999941;28;25180;-71
2023/08/07 01:53:31;;;;;;;15.80;3.28;;;;;;;;;;4994464;28;25100;-72
2023/08/07 01:55:57;;;;;;;10.65;2.35;;;;;;;;;;5007287;28;25080;-73
2023/08/07 01:58:23;;;;;;;9.75;2.47;;;;;;;;;;5015717;28;25067;-75
2023/08/07 02:00:49;;;;;;;7.70;2.22;;;;;;;;;;4999853;28;25078;-74
2023/08/07 02:03:15;;;;;;;8.30;2.60;;;;;;;;;;5009016;28;25050;-71
2023/08/07 02:05:41;;;;;;;9.95;2.22;;;;;;;;;;5006480;28;25061;-74
2023/08/07 02:08:07;;;;;;;9.65;3.05;;;;;;;;;;4995401;28;25069;-72
2023/08/07 02:10:34;;;;;;;6.63;2.40;;;;;;;;;;4993218;28;25069;-75
2023/08/07 02:13:00;;;;;;;10.57;3.47;;;;;;;;;;5006673;28;25170;-72
2023/08/07 02:15:26;;;;;;;12.05;3.42;;;;;;;;;;5000705;28;25065;-72
2023/08/07 02:17:52;;;;;;;10.35;2.72;;;;;;;;;;4996689;28;25052;-71
2023/08/07 02:20:18;;;;;;;13.43;3.13;;;;;;;;;;5000137;28;25061;-72
2023/08/07 02:22:44;;;;;;;14.30;2.65;;;;;;;;;;5008603;28;25083;-71
2023/08/07 02:25:10;;;;;;;6.35;2.53;;;;;;;;;;4999918;28;25141;-74
2023/08/07 02:27:36;;;;;;;8.82;2.58;;;;;;;;;;5002236;28;25058;-71
2023/08/07 02:30:03;;;;;;;14.50;2.50;;;;;;;;;;5000289;28;25069;-74
2023/08/07 02:32:29;;;;;;;7.10;2.40;;;;;;;;;;4997747;28;25090;-72
2023/08/07 02:34:55;;;;;;;8.50;3.67;;;;;;;;;;5009652;28;25061;-72
2023/08/07 02:37:21;;;;;;;10.13;2.40;;;;;;;;;;5001353;28;25095;-71
2023/08/07 02:39:47;;;;;;;12.50;2.72;;;;;;;;;;5004102;28;25155;-72
2023/08/07 02:42:13;;;;;;;11.15;2.75;;;;;;;;;;5006948;28;25060;-72
2023/08/07 02:44:39;;;;;;;8.45;2.53;;;;;;;;;;5001496;28;25091;-73
2023/08/07 02:47:05;;;;;;;14.65;3.75;;;;;;;;;;4997898;28;25070;-73
2023/08/07 02:49:31;;;;;;;9.43;3.35;;;;;;;;;;5005804;28;25107;-73
2023/08/07 02:51:57;;;;;;;6.97;2.72;;;;;;;;;;4999788;28;25075;-75
2023/08/07 02:54:24;;;;;;;9.20;2.47;;;;;;;;;;5003888;28;25067;-73
2023/08/07 02:56:50;;;;;;;13.98;3.58;;;;;;;;;;5005229;28;25098;-73
2023/08/07 02:59:16;;;;;;;12.57;2.95;;;;;;;;;;5003459;28;25087;-72
2023/08/07 03:01:42;;;;;;;10.98;2.30;;;;;;;;;;5008134;28;25150;-71
2023/08/07 03:04:08;;;;;;;7.18;1.88;;;;;;;;;;4992315;28;25090;-72
2023/08/07 03:06:34;;;;;;;10.88;2.78;;;;;;;;;;5003219;28;25079;-73
2023/08/07 03:09:00;;;;;;;16.70;3.25;;;;;;;;;;5006948;28;25082;-72
2023/08/07 03:11:26;;;;;;;7.43;2.50;;;;;;;;;;4993262;28;25152;-74
2023/08/07 03:13:52;;;;;;;10.77;2.92;;;;;;;;;;5002250;28;25068;-72
2023/08/07 03:16:18;;;;;;;10.88;3.00;;;;;;;;;;5003331;28;25117;-72
2023/08/07 03:18:44;;;;;;;14.45;3.03;;;;;;;;;;4998579;28;25096;-73
2023/08/07 03:21:10;;;;;;;8.52;3.13;;;;;;;;;;5011067;28;25059;-73
2023/08/07 03:23:37;;;;;;;14.27;2.58;;;;;;;;;;5005858;28;25061;-73
2023/08/07 03:26:07;;;;;;;9.65;2.65;;;;;;;;;;4999629;28;25061;-72
2023/08/07 03:28:33;;;;;;;10.13;2.65;;;;;;;;;;4996077;28;25161;-74
2023/08/07 03:31:00;;;;;;;12.07;3.83;;;;;;;;;;5000973;28;25095;-73
2023/08/07 03:33:26;;;;;;;13.40;3.00;;;;;;;;;;4996635;28;25070;-71
2023/08/07 03:35:52;;;;;;;15.18;2.90;;;;;;;;;;4999013;28;25052;-71
2023/08/07 03:38:18;;;;;;;14.88;2.97;;;;;;;;;;5005546;28;25071;-74
2023/08/07 03:40:44;;;;;;;9.35;2.38;;;;;;;;;;5021855;28;25056;-75
2023/08/07 03:43:10;;;;;;;11.20;2.70;;;;;;;;;;4994836;28;25094;-73
2023/08/07 03:45:36;;;;;;;15.93;3.03;;;;;;;;;;5017200;28;25099;-73
2023/08/07 03:48:02;;;;;;;8.02;2.00;;;;;;;;;;5000646;28;25050;-70
2023/08/07 03:50:30;;;;;;;8.38;1.70;;;;;;;;;;5001616;28;25065;-72
2023/08/07 03:52:56;;;;;;;10.93;2.20;;;;;;;;;;5014420;28;25057;-74
2023/08/07 03:55:22;;;;;;;10.05;1.98;;;;;;;;;;5002917;28;25187;-73
2023/08/07 03:57:48;;;;;;;8.18;1.92;;;;;;;;;;5005982;28;25044;-74
2023/08/07 04:00:14;;;;;;;4.47;1.45;;;;;;;;;;5005923;28;25097;-77
2023/08/07 04:02:40;;;;;;;8.80;2.58;;;;;;;;;;5012350;28;25085;-73
2023/08/07 04:05:07;;;;;;;6.97;2.03;;;;;;;;;;5003787;28;25068;-72
2023/08/07 04:07:33;;;;;;;3.92;2.03;;;;;;;;;;5004031;28;25084;-72
2023/08/07 04:09:59;;;;;;;6.20;2.35;;;;;;;;;;4993845;28;25107;-72
2023/08/07 04:12:24;;;;;;;7.97;2.50;;;;;;;;;;5003541;28;25063;-71
2023/08/07 04:14:50;;;;;;;8.27;1.90;;;;;;;;;;5003340;28;25085;-72
2023/08/07 04:17:16;;;;;;;5.78;1.52;;;;;;;;;;4997376;28;25048;-72
2023/08/07 04:19:42;;;;;;;10.82;1.88;;;;;;;;;;5019876;28;25067;-71
2023/08/07 04:22:08;;;;;;;5.28;1.50;;;;;;;;;;5005707;28;25128;-73
2023/08/07 04:24:34;;;;;;;7.38;1.65;;;;;;;;;;5006942;28;25096;-72
2023/08/07 04:27:00;;;;;;;4.80;1.95;;;;;;;;;;4998428;28;25114;-72
2023/08/07 04:29:26;;;;;;;8.95;2.30;;;;;;;;;;5002061;28;25075;-72
2023/08/07 04:31:52;;;;;;;6.45;1.90;;;;;;;;;;4998538;28;25061;-72
2023/08/07 04:34:18;;;;;;;14.43;3.53;;;;;;;;;;5016129;28;25069;-73
2023/08/07 04:36:44;;;;;;;9.88;2.85;;;;;;;;;;5013668;28;25072;-72
2023/08/07 04:39:13;;;;;;;7.00;2.35;;;;;;;;;;5016257;28;25050;-72
2023/08/07 04:41:39;;;;;;;9.50;2.20;;;;;;;;;;5013429;28;25107;-72
2023/08/07 04:44:05;;;;;;;9.75;2.35;;;;;;;;;;5020096;28;25154;-71
2023/08/07 04:46:32;;;;;;;10.75;2.22;;;;;;;;;;5005973;28;25080;-71
2023/08/07 04:49:00;;;;;;;8.48;2.53;;;;;;;;;;5014501;28;25069;-71
2023/08/07 04:51:28;;;;;;;13.52;3.20;;;;;;;;;;5003612;28;25061;-70
2023/08/07 04:53:56;;;;;;;16.13;2.53;;;;;;;;;;5001926;28;25062;-73
2023/08/07 04:56:22;;;;;;;10.02;2.38;;;;;;;;;;5014433;28;25073;-72
2023/08/07 04:58:48;;;;;;;11.40;2.90;;;;;;;;;;5015202;28;25054;-71
2023/08/07 05:01:15;;;;;;;11.05;2.30;;;;;;;;;;5008876;28;25081;-71
2023/08/07 05:03:41;;;;;;;8.57;2.28;;;;;;;;;;5006496;28;25099;-71
2023/08/07 05:06:07;;;;;;;10.55;2.55;;;;;;;;;;5016971;28;25100;-72
2023/08/07 05:08:33;;;;;;;17.25;3.67;;;;;;;;;;5008281;28;25154;-70
2023/08/07 05:10:59;;;;;;;10.50;2.03;;;;;;;;;;5001945;28;25065;-70
2023/08/07 05:13:25;;;;;;;8.18;1.88;;;;;;;;;;5011455;28;25064;-72
2023/08/07 05:15:51;;;;;;;15.32;2.70;;;;;;;;;;5013485;28;25047;-71
2023/08/07 05:18:17;;;;;;;8.32;2.88;;;;;;;;;;5015554;28;25010;-71
2023/08/07 05:20:43;;;;;;;10.70;2.60;;;;;;;;;;5005651;28;25135;-71
2023/08/07 05:23:10;;;;;;;9.25;2.38;;;;;;;;;;5014600;28;25070;-71
2023/08/07 05:25:37;;;;;;;8.50;1.98;;;;;;;;;;5012678;28;25075;-73
2023/08/07 05:28:03;;;;;;;9.90;2.13;;;;;;;;;;4997453;28;25061;-72
2023/08/07 05:30:29;;;;;;;13.60;3.47;;;;;;;;;;5010833;28;25093;-70
2023/08/07 05:32:55;;;;;;;13.10;2.03;;;;;;;;;;5002258;28;25054;-71
2023/08/07 05:35:21;;;;;;;14.48;2.60;;;;;;;;;;5003071;28;25110;-71
2023/08/07 05:37:47;;;;;;;8.32;1.98;;;;;;;;;;5013597;28;25077;-71
2023/08/07 05:40:13;;;;;;;9.70;2.10;;;;;;;;;;4996015;28;25059;-71
2023/08/07 05:42:40;;;;;;;10.55;1.90;;;;;;;;;;5004743;28;25052;-71
2023/08/07 05:45:10;;;;;;;10.32;2.35;;;;;;;;;;5004415;28;25057;-71
2023/08/07 05:47:36;;;;;;;10.23;2.53;;;;;;;;;;5001562;28;25085;-73
2023/08/07 05:50:02;;;;;;;16.83;2.50;;;;;;;;;;4996375;28;25063;-73
2023/08/07 05:52:28;;;;;;;12.13;3.15;;;;;;;;;;5005418;28;25053;-75
2023/08/07 05:54:54;;;;;;;9.18;2.08;;;;;;;;;;5000590;28;25062;-72
2023/08/07 05:57:20;;;;;;;8.15;2.60;;;;;;;;;;5003296;28;25132;-72
2023/08/07 05:59:46;;;;;;;8.90;1.88;;;;;;;;;;5004643;28;25053;-72
2023/08/07 06:02:12;;;;;;;10.98;2.95;;;;;;;;;;4999456;28;25108;-72
2023/08/07 06:04:38;;;;;;;7.43;1.95;;;;;;;;;;5008004;28;25101;-72
2023/08/07 06:07:05;;;;;;;14.18;2.55;;;;;;;;;;4990294;28;25074;-71
2023/08/07 06:09:31;;;;;;;15.93;2.35;;;;;;;;;;4996541;28;25116;-72
2023/08/07 06:11:57;;;;;;;9.57;2.22;;;;;;;;;;4985942;28;25095;-72
2023/08/07 06:14:25;;;;;;;9.52;2.72;;;;;;;;;;4999726;28;25100;-71
2023/08/07 06:16:51;;;;;;;8.55;1.60;;;;;;;;;;5000864;28;25074;-73
2023/08/07 06:19:17;;;;;;;8.20;2.22;;;;;;;;;;5007167;28;25070;-74
2023/08/07 06:21:43;;;;;;;11.88;2.20;;;;;;;;;;4988394;28;25115;-74
2023/08/07 06:24:09;;;;;;;10.48;2.33;;;;;;;;;;4987764;28;25049;-73
2023/08/07 06:26:35;;;;;;;8.45;1.98;;;;;;;;;;4991525;28;25147;-74
2023/08/07 06:29:01;;;;;;;8.45;1.80;;;;;;;;;;5013049;28;25060;-73
2023/08/07 06:31:27;;;;;;;8.25;2.55;;;;;;;;;;4988826;28;25465;-71
2023/08/07 06:33:53;;;;;;;6.20;1.77;;;;;;;;;;4984399;28;25116;-72
2023/08/07 06:36:19;;;;;;;7.15;1.85;;;;;;;;;;5010690;28;25073;-72
2023/08/07 06:38:45;;;;;;;10.60;2.72;;;;;;;;;;4992412;28;25067;-72
2023/08/07 06:41:11;;;;;;;7.50;1.92;;;;;;;;;;4994259;28;26039;-71
2023/08/07 06:43:37;;;;;;;9.00;1.70;;;;;;;;;;5005160;28;25102;-72
2023/08/07 06:46:03;;;;;;;7.90;2.30;;;;;;;;;;4995244;28;25061;-72
2023/08/07 06:48:29;;;;;;;6.43;2.30;;;;;;;;;;5006437;28;25078;-74
2023/08/07 06:50:55;;;;;;;10.07;1.85;;;;;;;;;;5000015;28;25135;-71
2023/08/07 06:53:21;;;;;;;11.40;2.55;;;;;;;;;;4999332;28;25067;-71
2023/08/07 06:55:47;;;;;;;6.10;2.00;;;;;;;;;;5001719;28;25076;-73
2023/08/07 06:58:13;;;;;;;14.60;2.25;;;;;;;;;;4993027;28;25080;-72
2023/08/07 07:00:39;;;;;;;9.77;2.08;;;;;;;;;;4997557;28;25076;-72
2023/08/07 07:03:07;;;;;;;15.25;2.45;;;;;;;;;;4990761;28;25160;-70
2023/08/07 07:05:33;;;;;;;11.32;3.13;;;;;;;;;;4986627;28;25076;-72
2023/08/07 07:07:59;;;;;;;4.43;1.67;;;;;;;;;;4986420;28;25074;-72
2023/08/07 07:10:25;;;;;;;11.80;1.85;;;;;;;;;;4984223;28;25059;-71
2023/08/07 07:12:52;;;;;;;10.63;2.22;;;;;;;;;;4987928;28;25060;-73
2023/08/07 07:15:18;;;;;;;7.20;1.85;;;;;;;;;;4998196;28;25081;-72
2023/08/07 07:17:44;;;;;;;9.25;1.90;;;;;;;;;;4994625;28;25103;-71
2023/08/07 07:20:11;;;;;;;5.53;1.85;;;;;;;;;;5000887;28;25082;-74
2023/08/07 07:22:37;;;;;;;8.85;1.60;;;;;;;;;;4994882;28;25115;-72
2023/08/07 07:25:03;;;;;;;9.30;1.40;;;;;;;;;;4987336;28;25069;-75
2023/08/07 07:27:29;;;;;;;9.07;2.63;;;;;;;;;;4988754;28;25062;-71
2023/08/07 07:29:55;;;;;;;9.40;2.28;;;;;;;;;;4990358;28;25060;-72
2023/08/07 07:32:21;;;;;;;8.75;1.80;;;;;;;;;;4988188;28;25053;-71
2023/08/07 07:34:47;;;;;;;10.98;2.85;;;;;;;;;;4999530;28;25072;-71
2023/08/07 07:37:14;;;;;;;9.95;2.00;;;;;;;;;;4988332;28;25068;-74
2023/08/07 07:39:41;;;;;;;6.93;1.80;;;;;;;;;;5004911;28;25095;-71
2023/08/07 07:42:08;;;;;;;8.25;2.28;;;;;;;;;;4986855;28;25075;-71
2023/08/07 07:44:36;;;;;;;11.50;2.15;;;;;;;;;;5010899;28;25068;-72
2023/08/07 07:47:02;;;;;;;6.03;2.20;;;;;;;;;;4991778;28;25055;-72
2023/08/07 07:49:28;;;;;;;4.97;1.67;;;;;;;;;;4994367;28;25050;-74
2023/08/07 07:51:54;;;;;;;9.18;2.42;;;;;;;;;;4988904;28;25079;-72
2023/08/07 07:54:20;;;;;;;8.02;1.60;;;;;;;;;;4998670;28;25067;-72
2023/08/07 07:56:46;;;;;;;8.73;1.77;;;;;;;;;;4995990;28;25163;-74
2023/08/07 07:59:13;;;;;;;7.82;1.50;;;;;;;;;;5003288;28;25059;-72
2023/08/07 08:01:39;;;;;;;9.90;2.15;;;;;;;;;;4984974;28;25145;-73
2023/08/07 08:04:05;;;;;;;9.18;2.03;;;;;;;;;;5003348;28;25163;-72
2023/08/07 08:06:31;;;;;;;3.72;1.80;;;;;;;;;;4989844;28;25071;-72
2023/08/07 08:08:58;;;;;;;9.75;2.00;;;;;;;;;;4992338;28;25060;-71
2023/08/07 08:11:24;;;;;;;6.13;1.63;;;;;;;;;;5004952;28;25086;-74
2023/08/07 08:13:50;;;;;;;10.80;1.80;;;;;;;;;;4994520;28;25089;-71
2023/08/07 08:16:16;;;;;;;8.43;2.78;;;;;;;;;;5002068;28;25053;-72
2023/08/07 08:18:41;;;;;;;6.85;1.70;;;;;;;;;;5009740;28;25090;-73
2023/08/07 08:21:07;;;;;;;5.75;1.38;;;;;;;;;;4989770;28;25099;-72
2023/08/07 08:23:34;;;;;;;14.02;2.30;;;;;;;;;;4995274;28;25063;-72
2023/08/07 08:26:01;;;;;;;6.00;1.88;;;;;;;;;;4991762;28;25050;-70
2023/08/07 08:28:27;;;;;;;7.65;1.77;;;;;;;;;;4991213;28;25081;-72
2023/08/07 08:30:53;;;;;;;8.88;1.85;;;;;;;;;;5008437;28;25062;-73
2023/08/07 08:33:19;;;;;;;6.40;1.63;;;;;;;;;;5006770;28;25116;-72
2023/08/07 08:35:45;;;;;;;3.45;1.67;;;;;;;;;;4993215;28;25070;-73
2023/08/07 08:38:11;;;;;;;9.68;1.65;;;;;;;;;;4995610;28;25100;-71
2023/08/07 08:40:39;;;;;;;3.00;1.00;;;;;;;;;;4991852;28;25159;-72
2023/08/07 08:43:06;;;;;;;5.05;1.48;;;;;;;;;;4993833;28;25062;-72
2023/08/07 08:45:38;;;;;;;10.25;1.73;;;;;;;;;;4994175;28;25054;-73
2023/08/07 08:48:05;;;;;;;13.73;2.28;;;;;;;;;;4991226;28;25052;-72
2023/08/07 08:50:32;;;;;;;6.43;1.88;;;;;;;;;;4999501;28;25068;-71
2023/08/07 08:52:59;;;;;;;4.93;1.23;;;;;;;;;;4996401;28;25084;-73
2023/08/07 08:55:26;;;;;;;7.22;1.38;;;;;;;;;;5007637;28;25057;-72
2023/08/07 08:57:53;;;;;;;5.47;1.60;;;;;;;;;;4996018;28;25057;-72
2023/08/07 09:00:23;;;;;;;3.17;1.30;;;;;;;;;;4992301;28;25105;-73
2023/08/07 09:02:49;;;;;;;10.75;2.15;;;;;;;;;;4988017;28;25076;-71
2023/08/07 09:05:16;;;;;;;6.43;1.58;;;;;;;;;;4996710;28;25077;-71
2023/08/07 09:07:42;;;;;;;5.95;1.10;;;;;;;;;;4994303;28;25081;-73
2023/08/07 09:10:08;;;;;;;10.38;2.13;;;;;;;;;;4989812;28;25069;-73
2023/08/07 09:12:34;;;;;;;4.45;1.65;;;;;;;;;;4998909;28;25073;-72
2023/08/07 09:15:02;;;;;;;3.75;1.70;;;;;;;;;;4999682;28;25066;-72
2023/08/07 09:17:29;;;;;;;4.35;1.60;;;;;;;;;;4990946;28;25082;-70
2023/08/07 09:19:55;;;;;;;4.38;1.83;;;;;;;;;;4995680;28;25055;-73
2023/08/07 09:22:21;;;;;;;5.15;1.17;;;;;;;;;;4984361;28;25072;-72
2023/08/07 09:24:49;;;;;;;6.22;1.83;;;;;;;;;;4989600;28;25091;-72
2023/08/07 09:27:15;;;;;;;6.85;1.73;;;;;;;;;;4985644;28;25129;-72
2023/08/07 09:29:41;;;;;;;2.58;1.45;;;;;;;;;;4999867;28;25137;-70
2023/08/07 09:32:13;;;;;;;8.73;2.10;;;;;;;;;;4996020;28;25044;-72
2023/08/07 09:34:40;;;;;;;4.63;1.65;;;;;;;;;;4990082;28;25070;-73
2023/08/07 09:37:07;;;;;;;7.07;1.95;;;;;;;;;;4990429;28;25151;-73
2023/08/07 09:39:35;;;;;;;5.78;1.67;;;;;;;;;;4998304;28;25075;-72
2023/08/07 09:42:01;;;;;;;3.85;1.50;;;;;;;;;;4994740;28;25066;-74
2023/08/07 09:44:35;;;;;;;5.40;1.60;;;;;;;;;;5006845;28;25148;-73
2023/08/07 09:47:01;;;;;;;4.60;1.55;;;;;;;;;;4988992;28;25061;-72
2023/08/07 09:49:32;;;;;;;3.25;1.42;;;;;;;;;;4994483;28;25094;-71
2023/08/07 09:51:58;;;;;;;8.13;1.85;;;;;;;;;;5011449;28;25051;-71
2023/08/07 09:54:24;;;;;;;3.47;1.92;;;;;;;;;;5004499;28;25079;-71
2023/08/07 09:56:55;;;;;;;5.82;1.40;;;;;;;;;;4999234;28;25069;-73
2023/08/07 09:59:21;;;;;;;5.00;1.58;;;;;;;;;;4998518;28;25070;-73
2023/08/07 10:01:47;;;;;;;5.57;1.50;;;;;;;;;;5013093;28;25054;-75
2023/08/07 10:04:15;;;;;;;3.35;1.30;;;;;;;;;;5006964;28;25067;-73
2023/08/07 10:06:42;;;;;;;11.02;1.52;;;;;;;;;;5001153;28;25054;-75
2023/08/07 10:09:08;;;;;;;2.80;1.15;;;;;;;;;;5000000;28;25070;-74
2023/08/07 10:11:35;;;;;;;3.25;1.30;;;;;;;;;;5005554;28;25086;-76
2023/08/07 10:14:01;;;;;;;4.93;1.52;;;;;;;;;;5006264;28;25076;-73
2023/08/07 10:16:28;;;;;;;3.30;1.30;;;;;;;;;;5006772;28;25052;-71
2023/08/07 10:18:54;;;;;;;3.67;1.48;;;;;;;;;;5009282;28;25066;-74
2023/08/07 10:21:20;;;;;;;5.30;1.73;;;;;;;;;;5016252;28;25064;-74
2023/08/07 10:23:46;;;;;;;8.45;1.67;;;;;;;;;;5016481;28;25074;-74
2023/08/07 10:26:13;;;;;;;3.38;1.70;;;;;;;;;;5001755;28;25050;-73
2023/08/07 10:28:41;;;;;;;6.32;1.50;;;;;;;;;;5012071;28;25096;-75
2023/08/07 10:31:07;;;;;;;7.65;1.52;;;;;;;;;;5006400;28;25154;-73
2023/08/07 10:33:34;;;;;;;4.85;1.70;;;;;;;;;;5006611;28;25054;-73
2023/08/07 10:36:00;;;;;;;4.80;1.38;;;;;;;;;;4999024;28;25069;-72
2023/08/07 10:38:26;;;;;;;4.57;1.48;;;;;;;;;;5010998;28;25060;-73
2023/08/07 10:41:02;;;;;;;3.70;1.67;;;;;;;;;;4999067;28;25097;-73
2023/08/07 10:43:29;;;;;;;3.42;1.42;;;;;;;;;;5013231;28;25067;-72
2023/08/07 10:46:00;;;;;;;9.10;1.60;;;;;;;;;;5004243;28;25064;-76
2023/08/07 10:48:27;;;;;;;4.30;1.35;;;;;;;;;;5008107;28;25068;-74
2023/08/07 10:51:00;;;;;;;5.63;1.75;;;;;;;;;;5004392;28;25130;-73
2023/08/07 10:53:31;;;;;;;2.97;1.17;;;;;;;;;;5007443;28;25092;-73
2023/08/07 10:56:11;;;;;;;5.20;1.55;;;;;;;;;;5012874;28;25083;-73
2023/08/07 10:58:38;;;;;;;2.17;1.08;;;;;;;;;;4997730;28;25061;-75
2023/08/07 11:01:19;;;;;;;7.40;2.60;;;;;;;;;;4998337;28;25074;-73
2023/08/07 11:03:45;;;;;;;2.20;1.27;;;;;;;;;;4994418;28;25070;-74
2023/08/07 11:06:11;;;;;;;2.25;0.98;;;;;;;;;;5003791;28;25065;-73
2023/08/07 11:08:38;;;;;;;5.85;1.58;;;;;;;;;;5004555;28;25151;-75
2023/08/07 11:11:06;;;;;;;5.90;1.30;;;;;;;;;;4993642;28;25066;-72
2023/08/07 11:13:32;;;;;;;6.00;1.63;;;;;;;;;;4996674;28;25073;-74
2023/08/07 11:15:59;;;;;;;4.10;1.60;;;;;;;;;;4998088;28;25119;-74
2023/08/07 11:18:25;;;;;;;4.28;1.50;;;;;;;;;;5003298;28;25063;-72
2023/08/07 11:20:52;;;;;;;8.43;1.67;;;;;;;;;;4996233;28;25064;-74
2023/08/07 11:23:23;;;;;;;6.35;1.63;;;;;;;;;;5010853;28;25061;-74
2023/08/07 11:25:49;;;;;;;4.32;1.45;;;;;;;;;;4995490;28;25069;-74
2023/08/07 11:28:18;;;;;;;4.45;1.40;;;;;;;;;;5006682;28;25072;-72
2023/08/07 11:30:44;;;;;;;3.17;1.60;;;;;;;;;;5007540;28;25081;-74
2023/08/07 11:33:11;;;;;;;3.75;1.85;;;;;;;;;;5008312;28;25133;-72
2023/08/07 11:35:41;;;;;;;6.65;1.63;;;;;;;;;;5000909;28;25059;-73
2023/08/07 11:38:07;;;;;;;5.15;1.80;;;;;;;;;;4999644;28;25070;-73
2023/08/07 11:40:33;;;;;;;4.57;1.85;;;;;;;;;;5003809;28;25057;-73
2023/08/07 11:42:59;;;;;;;15.93;3.55;;;;;;;;;;5003456;28;25063;-74
2023/08/07 11:45:25;;;;;;;7.35;1.85;;;;;;;;;;4998271;28;25050;-74
2023/08/07 11:47:51;;;;;;;5.93;1.70;;;;;;;;;;4998238;28;25048;-72
2023/08/07 11:50:17;;;;;;;6.43;2.00;;;;;;;;;;5009768;28;25063;-74
2023/08/07 11:52:43;;;;;;;4.53;1.70;;;;;;;;;;4997451;28;25070;-71
2023/08/07 11:55:09;;;;;;;7.40;2.10;;;;;;;;;;4999236;28;25057;-74
2023/08/07 11:57:39;;;;;;;7.95;1.90;;;;;;;;;;4991062;28;25063;-73
2023/08/07 12:00:13;;;;;;;8.23;2.13;;;;;;;;;;4998889;28;25137;-74
2023/08/07 12:02:42;;;;;;;11.50;1.85;;;;;;;;;;4988182;28;25067;-73
2023/08/07 12:05:12;;;;;;;8.73;1.83;;;;;;;;;;4993869;28;25087;-72
2023/08/07 12:07:38;;;;;;;11.57;2.17;;;;;;;;;;4997956;28;25116;-74
2023/08/07 12:10:07;;;;;;;5.20;1.90;;;;;;;;;;5003687;28;25070;-72
2023/08/07 12:12:44;;;;;;;4.55;1.52;;;;;;;;;;4996117;28;25049;-72
2023/08/07 12:15:10;;;;;;;6.57;2.00;;;;;;;;;;4998298;28;25126;-73
2023/08/07 12:17:37;;;;;;;4.50;1.65;;;;;;;;;;5000003;28;25066;-74
2023/08/07 12:20:07;;;;;;;7.07;2.15;;;;;;;;;;5011759;28;25163;-74
2023/08/07 12:22:33;;;;;;;6.13;2.22;;;;;;;;;;4996173;28;25055;-74
2023/08/07 12:24:59;;;;;;;6.47;2.45;;;;;;;;;;4986626;28;25057;-72
2023/08/07 12:27:26;;;;;;;8.82;2.45;;;;;;;;;;4984503;28;25076;-73
2023/08/07 12:29:52;;;;;;;8.85;2.70;;;;;;;;;;4993745;28;25128;-72
2023/08/07 12:32:17;;;;;;;8.38;2.63;;;;;;;;;;4985294;28;25090;-73
2023/08/07 12:34:43;;;;;;;4.65;2.58;;;;;;;;;;4997900;28;25051;-71
2023/08/07 12:37:09;;;;;;;7.35;2.00;;;;;;;;;;4988977;28;25076;-73
2023/08/07 12:39:35;;;;;;;5.47;2.08;;;;;;;;;;4988694;28;25096;-73
2023/08/07 12:42:03;;;;;;;7.15;2.28;;;;;;;;;;5000658;28;25109;-73
2023/08/07 12:44:29;;;;;;;8.80;2.97;;;;;;;;;;4995882;28;25064;-72
2023/08/07 12:46:55;;;;;;;7.68;3.55;;;;;;;;;;4992353;28;25118;-76
2023/08/07 12:49:21;;;;;;;7.55;3.05;;;;;;;;;;5005186;28;25067;-74
2023/08/07 12:51:47;;;;;;;7.18;2.90;;;;;;;;;;4993211;28;25056;-73
2023/08/07 12:54:13;;;;;;;7.90;2.45;;;;;;;;;;4999135;28;25060;-76
2023/08/07 12:56:39;;;;;;;10.15;2.85;;;;;;;;;;5002061;28;25060;-75
2023/08/07 12:59:05;;;;;;;7.45;2.53;;;;;;;;;;5015129;28;25058;-72
2023/08/07 13:01:31;;;;;;;7.75;2.63;;;;;;;;;;5003084;28;25083;-73
2023/08/07 13:03:57;;;;;;;8.85;3.55;;;;;;;;;;5012138;28;25134;-74
2023/08/07 13:06:23;;;;;;;4.43;2.95;;;;;;;;;;5015097;28;25097;-72
2023/08/07 13:08:49;;;;;;;7.15;2.80;;;;;;;;;;5012410;28;25075;-74
2023/08/07 13:11:15;;;;;;;5.45;2.88;;;;;;;;;;5024782;28;25078;-73
2023/08/07 13:13:41;;;;;;;7.60;3.03;;;;;;;;;;5019531;28;25063;-72
2023/08/07 13:16:07;;;;;;;7.63;3.08;;;;;;;;;;5003898;28;25079;-72
2023/08/07 13:18:33;;;;;;;6.97;2.67;;;;;;;;;;5019576;28;25083;-72
2023/08/07 13:20:59;;;;;;;3.75;2.30;;;;;;;;;;5005878;28;25060;-75
2023/08/07 13:23:25;;;;;;;3.70;2.28;;;;;;;;;;5003706;28;25155;-72
2023/08/07 13:25:51;;;;;;;4.28;3.00;;;;;;;;;;5006427;28;25071;-72
2023/08/07 13:28:18;;;;;;;8.27;2.80;;;;;;;;;;4995041;28;25048;-74
2023/08/07 13:30:44;;;;;;;3.42;2.15;;;;;;;;;;4997386;28;25072;-72
2023/08/07 13:33:10;;;;;;;3.92;1.63;;;;;;;;;;4999249;28;25078;-74
2023/08/07 13:35:37;;;;;;;3.65;1.73;;;;;;;;;;4997902;28;25070;-71
2023/08/07 13:38:05;;;;;;;2.70;1.30;;;;;;;;;;5003672;28;25051;-72
2023/08/07 13:40:31;;;;;;;5.70;1.67;;;;;;;;;;4994035;28;25148;-70
2023/08/07 13:42:59;;;;;;;2.53;1.33;;;;;;;;;;4995416;28;25066;-72
2023/08/07 13:45:25;;;;;;;6.18;1.60;;;;;;;;;;5005280;28;25064;-70
2023/08/07 13:47:51;;;;;;;3.30;1.35;;;;;;;;;;4986111;28;25113;-70
2023/08/07 13:50:17;;;;;;;4.43;1.67;;;;;;;;;;4985009;28;25093;-72
2023/08/07 13:52:43;;;;;;;4.80;1.35;;;;;;;;;;4998176;28;25087;-71
2023/08/07 13:55:09;;;;;;;4.88;1.77;;;;;;;;;;4993002;28;25147;-71
2023/08/07 13:57:35;;;;;;;1.92;1.38;;;;;;;;;;4983894;28;25042;-73
2023/08/07 14:00:01;;;;;;;1.65;1.30;;;;;;;;;;4992830;28;25060;-72
2023/08/07 14:02:27;;;;;;;2.80;1.45;;;;;;;;;;4989742;28;25064;-71
2023/08/07 14:04:53;;;;;;;1.23;1.02;;;;;;;;;;4984006;28;25072;-71
2023/08/07 14:07:19;;;;;;;2.78;1.40;;;;;;;;;;4993077;28;25143;-72
2023/08/07 14:09:45;;;;;;;1.83;1.55;;;;;;;;;;4997747;28;25125;-72
2023/08/07 14:12:11;;;;;;;2.47;1.55;;;;;;;;;;4994846;28;25082;-74
2023/08/07 14:14:37;;;;;;;2.35;1.48;;;;;;;;;;4985333;28;25118;-72
2023/08/07 14:17:03;;;;;;;2.72;1.33;;;;;;;;;;4993602;28;25126;-72
2023/08/07 14:19:29;;;;;;;2.67;1.60;;;;;;;;;;4992956;28;25073;-71
2023/08/07 14:21:55;;;;;;;5.32;1.63;;;;;;;;;;4980770;28;25142;-72
2023/08/07 14:24:22;;;;;;;1.98;1.30;;;;;;;;;;5001744;28;25112;-72
2023/08/07 14:26:48;;;;;;;3.03;1.35;;;;;;;;;;4997524;28;25063;-69
2023/08/07 14:29:14;;;;;;;2.10;1.38;;;;;;;;;;4982734;28;25061;-73
2023/08/07 14:31:40;;;;;;;3.00;1.48;;;;;;;;;;4990966;28;25060;-72
2023/08/07 14:34:07;;;;;;;1.10;1.10;;;;;;;;;;4981948;28;25070;-71